createdAt,value
2017-05-17T00:02:19.122Z,5.20
2017-05-17T00:04:47.429Z,4.96
2017-05-17T00:07:15.691Z,4.84
2017-05-17T00:09:43.999Z,5.00
2017-05-17T00:12:12.269Z,4.58
2017-05-17T00:14:40.523Z,5.36
2017-05-17T00:17:09.515Z,4.68
2017-05-17T00:19:38.512Z,5.20
2017-05-17T00:22:07.517Z,4.96
2017-05-17T00:24:36.502Z,4.68
2017-05-17T00:27:05.482Z,4.78
2017-05-17T00:29:33.729Z,4.58
2017-05-17T00:32:02.051Z,4.64
2017-05-17T00:34:31.035Z,5.32
2017-05-17T00:37:11.863Z,4.78
2017-05-17T00:39:51.940Z,4.58
2017-05-17T00:42:32.375Z,5.36
2017-05-17T00:45:12.485Z,4.84
2017-05-17T00:47:53.378Z,5.38
2017-05-17T00:50:33.571Z,5.32
2017-05-17T00:53:01.816Z,4.72
2017-05-17T00:55:30.059Z,5.08
2017-05-17T00:57:59.056Z,4.82
2017-05-17T01:00:28.051Z,4.76
2017-05-17T01:02:57.032Z,4.36
2017-05-17T01:05:26.038Z,5.42
2017-05-17T01:07:55.027Z,4.94
2017-05-17T01:10:23.994Z,4.66
2017-05-17T01:12:52.306Z,4.82
2017-05-17T01:15:20.579Z,4.68
2017-05-17T01:17:49.572Z,5.36
2017-05-17T01:20:18.557Z,5.26
2017-05-17T01:22:47.559Z,5.00
2017-05-17T01:25:15.828Z,4.80
2017-05-17T01:27:44.934Z,5.30
2017-05-17T01:30:13.170Z,4.70
2017-05-17T01:32:41.476Z,4.88
2017-05-17T01:35:14.340Z,5.20
2017-05-17T01:37:42.576Z,5.48
2017-05-17T01:40:10.921Z,4.68
2017-05-17T01:42:39.194Z,5.46
2017-05-17T01:45:08.184Z,4.96
2017-05-17T01:47:36.443Z,5.46
2017-05-17T01:50:04.735Z,4.84
2017-05-17T01:52:33.705Z,4.66
2017-05-17T01:55:01.968Z,5.34
2017-05-17T01:57:30.285Z,5.42
2017-05-17T01:59:59.279Z,4.58
2017-05-17T02:02:27.547Z,5.60
2017-05-17T02:04:56.523Z,5.18
2017-05-17T02:07:24.744Z,5.78
2017-05-17T02:09:52.992Z,5.30
2017-05-17T02:12:21.987Z,5.98
2017-05-17T02:14:50.968Z,5.38
2017-05-17T02:17:19.978Z,5.08
2017-05-17T02:19:48.948Z,5.06
2017-05-17T02:22:17.239Z,4.62
2017-05-17T02:24:46.316Z,5.20
2017-05-17T02:27:14.630Z,5.46
2017-05-17T02:29:42.868Z,4.98
2017-05-17T02:32:11.176Z,5.08
2017-05-17T02:34:39.413Z,5.56
2017-05-17T02:37:07.657Z,4.92
2017-05-17T02:39:35.968Z,5.18
2017-05-17T02:42:04.280Z,5.02
2017-05-17T02:44:33.265Z,5.12
2017-05-17T02:47:02.275Z,5.38
2017-05-17T02:49:30.532Z,5.22
2017-05-17T02:51:59.528Z,5.62
2017-05-17T02:54:28.536Z,5.40
2017-05-17T02:56:56.800Z,5.14
2017-05-17T02:59:25.787Z,5.52
2017-05-17T03:01:54.786Z,5.04
2017-05-17T03:04:23.775Z,4.62
2017-05-17T03:06:52.759Z,5.28
2017-05-17T03:09:21.778Z,5.12
2017-05-17T03:11:50.020Z,6.36
2017-05-17T03:14:18.333Z,4.70
2017-05-17T03:16:46.575Z,4.58
2017-05-17T03:19:14.869Z,5.06
2017-05-17T03:21:43.835Z,4.92
2017-05-17T03:24:12.077Z,5.94
2017-05-17T03:26:40.416Z,5.12
2017-05-17T03:29:09.394Z,5.08
2017-05-17T03:31:37.615Z,5.20
2017-05-17T03:34:14.201Z,5.70
2017-05-17T03:36:42.550Z,5.32
2017-05-17T03:39:10.815Z,4.80
2017-05-17T03:41:39.052Z,5.62
2017-05-17T03:44:07.306Z,5.46
2017-05-17T03:46:35.545Z,4.92
2017-05-17T03:49:03.830Z,4.90
2017-05-17T03:51:32.095Z,5.46
2017-05-17T03:54:00.340Z,5.54
2017-05-17T03:56:28.581Z,5.54
2017-05-17T03:58:56.839Z,5.28
2017-05-17T04:01:25.069Z,4.94
2017-05-17T04:03:53.367Z,5.08
2017-05-17T04:06:22.472Z,5.60
2017-05-17T04:08:50.725Z,4.98
2017-05-17T04:11:18.956Z,5.64
2017-05-17T04:13:47.209Z,5.96
2017-05-17T04:16:15.461Z,5.46
2017-05-17T04:18:44.450Z,5.80
2017-05-17T04:21:13.447Z,5.72
2017-05-17T04:23:42.428Z,5.48
2017-05-17T04:26:10.723Z,5.36
2017-05-17T04:28:39.707Z,6.12
2017-05-17T04:31:08.720Z,5.66
2017-05-17T04:33:36.991Z,5.60
2017-05-17T04:36:06.074Z,5.30
2017-05-17T04:38:35.064Z,5.84
2017-05-17T04:41:04.074Z,6.20
2017-05-17T04:43:32.345Z,5.58
2017-05-17T04:46:01.313Z,5.60
2017-05-17T04:48:29.560Z,5.86
2017-05-17T04:50:57.807Z,6.18
2017-05-17T04:53:26.061Z,5.46
2017-05-17T04:55:55.051Z,6.00
2017-05-17T04:58:24.033Z,5.10
2017-05-17T05:00:52.472Z,5.36
2017-05-17T05:03:20.802Z,5.86
2017-05-17T05:05:49.780Z,5.60
2017-05-17T05:08:18.072Z,5.36
2017-05-17T05:10:47.094Z,5.60
2017-05-17T05:13:15.448Z,5.96
2017-05-17T05:15:44.456Z,5.32
2017-05-17T05:18:12.712Z,6.04
2017-05-17T05:20:41.673Z,5.90
2017-05-17T05:23:09.987Z,5.68
2017-05-17T05:25:38.956Z,5.46
2017-05-17T05:28:07.191Z,5.96
2017-05-17T05:30:35.425Z,5.30
2017-05-17T05:33:04.424Z,5.20
2017-05-17T05:35:33.425Z,5.60
2017-05-17T05:38:01.643Z,5.88
2017-05-17T05:40:29.965Z,5.40
2017-05-17T05:43:06.052Z,5.52
2017-05-17T05:45:34.312Z,6.10
2017-05-17T05:48:02.580Z,5.52
2017-05-17T05:50:31.568Z,6.00
2017-05-17T05:53:00.543Z,5.18
2017-05-17T05:55:28.855Z,5.74
2017-05-17T05:57:57.117Z,6.34
2017-05-17T06:00:26.116Z,6.30
2017-05-17T06:02:54.365Z,5.70
2017-05-17T06:05:22.611Z,5.36
2017-05-17T06:07:50.936Z,6.48
2017-05-17T06:10:19.919Z,5.42
2017-05-17T06:12:48.210Z,5.78
2017-05-17T06:15:17.212Z,5.72
2017-05-17T06:17:45.452Z,6.04
2017-05-17T06:20:13.756Z,5.72
2017-05-17T06:22:42.772Z,5.58
2017-05-17T06:25:11.048Z,5.30
2017-05-17T06:27:40.123Z,5.82
2017-05-17T06:30:09.112Z,6.22
2017-05-17T06:32:38.084Z,5.78
2017-05-17T06:35:07.097Z,6.18
2017-05-17T06:37:35.368Z,6.74
2017-05-17T06:40:04.368Z,5.30
2017-05-17T06:42:33.369Z,5.44
2017-05-17T06:45:02.360Z,5.24
2017-05-17T06:47:31.451Z,6.24
2017-05-17T06:50:00.423Z,5.64
2017-05-17T06:52:28.729Z,6.38
2017-05-17T06:54:57.008Z,5.94
2017-05-17T06:57:25.286Z,5.60
2017-05-17T06:59:53.554Z,5.38
2017-05-17T07:02:22.516Z,5.98
2017-05-17T07:04:50.821Z,5.88
2017-05-17T07:07:19.786Z,5.76
2017-05-17T07:09:48.134Z,5.64
2017-05-17T07:12:16.462Z,5.92
2017-05-17T07:14:44.666Z,6.52
2017-05-17T07:17:12.921Z,5.42
2017-05-17T07:19:41.924Z,5.96
2017-05-17T07:22:10.195Z,5.38
2017-05-17T07:24:39.182Z,6.20
2017-05-17T07:27:08.176Z,6.28
2017-05-17T07:29:37.148Z,6.48
2017-05-17T07:32:06.135Z,5.52
2017-05-17T07:34:34.439Z,5.84
2017-05-17T07:37:03.411Z,6.20
2017-05-17T07:39:31.705Z,6.28
2017-05-17T07:42:00.668Z,6.16
2017-05-17T07:44:28.979Z,5.80
2017-05-17T07:46:57.956Z,6.20
2017-05-17T07:49:26.956Z,6.50
2017-05-17T07:51:55.925Z,7.06
2017-05-17T07:54:24.276Z,5.78
2017-05-17T07:56:52.613Z,6.32
2017-05-17T07:59:21.595Z,6.24
2017-05-17T08:01:50.783Z,6.02
2017-05-17T08:04:19.027Z,6.30
2017-05-17T08:06:47.260Z,5.70
2017-05-17T08:09:15.520Z,6.20
2017-05-17T08:11:44.499Z,6.58
2017-05-17T08:14:12.804Z,5.70
2017-05-17T08:16:41.047Z,5.74
2017-05-17T08:19:09.371Z,6.50
2017-05-17T08:21:37.596Z,6.30
2017-05-17T08:24:05.920Z,6.06
2017-05-17T08:26:34.177Z,6.78
2017-05-17T08:31:57.460Z,6.40
2017-05-17T08:34:26.452Z,6.60
2017-05-17T08:36:55.432Z,6.78
2017-05-17T08:39:24.405Z,6.16
2017-05-17T08:41:52.656Z,6.12
2017-05-17T08:44:21.009Z,6.22
2017-05-17T08:46:49.360Z,6.62
2017-05-17T08:49:18.323Z,5.78
2017-05-17T08:51:46.568Z,6.32
2017-05-17T08:54:14.815Z,6.08
2017-05-17T08:56:43.825Z,6.94
2017-05-17T08:59:12.089Z,6.48
2017-05-17T09:01:40.329Z,6.30
2017-05-17T09:04:08.651Z,7.10
2017-05-17T09:06:36.889Z,6.86
2017-05-17T09:09:05.171Z,6.50
2017-05-17T09:11:34.199Z,6.10
2017-05-17T09:14:02.439Z,6.08
2017-05-17T09:16:30.736Z,5.78
2017-05-17T09:18:59.703Z,5.84
2017-05-17T09:21:28.014Z,5.58
2017-05-17T09:23:56.247Z,5.98
2017-05-17T09:26:24.563Z,5.98
2017-05-17T09:28:52.833Z,6.22
2017-05-17T09:31:21.815Z,6.12
2017-05-17T09:33:50.791Z,6.10
2017-05-17T09:36:19.091Z,6.20
2017-05-17T09:38:47.338Z,6.44
2017-05-17T09:41:15.572Z,6.48
2017-05-17T09:43:43.813Z,6.18
2017-05-17T09:46:12.783Z,7.10
2017-05-17T09:48:41.020Z,6.22
2017-05-17T09:51:09.260Z,6.62
2017-05-17T09:53:38.255Z,6.42
2017-05-17T09:56:06.577Z,6.54
2017-05-17T09:58:34.834Z,6.12
2017-05-17T10:01:03.184Z,6.20
2017-05-17T10:03:32.157Z,6.58
2017-05-17T10:06:00.472Z,6.76
2017-05-17T10:08:28.716Z,6.08
2017-05-17T10:10:57.748Z,6.14
2017-05-17T10:13:25.982Z,6.30
2017-05-17T10:15:54.208Z,6.72
2017-05-17T10:18:22.553Z,7.22
2017-05-17T10:20:51.554Z,5.98
2017-05-17T10:23:20.531Z,5.58
2017-05-17T10:25:49.509Z,7.00
2017-05-17T10:28:17.815Z,6.82
2017-05-17T10:30:46.065Z,6.54
2017-05-17T10:33:15.094Z,6.22
2017-05-17T10:35:43.366Z,6.44
2017-05-17T10:38:11.608Z,6.34
2017-05-17T10:40:39.906Z,5.96
2017-05-17T10:43:08.893Z,6.66
2017-05-17T10:45:37.912Z,7.10
2017-05-17T10:48:06.169Z,6.00
2017-05-17T10:50:35.158Z,5.78
2017-05-17T10:53:04.160Z,6.40
2017-05-17T10:55:33.259Z,6.68
2017-05-17T10:58:02.271Z,5.70
2017-05-17T11:00:30.532Z,6.24
2017-05-17T11:02:58.789Z,6.42
2017-05-17T11:05:27.765Z,6.74
2017-05-17T11:07:56.009Z,6.58
2017-05-17T11:10:24.273Z,6.14
2017-05-17T11:12:52.521Z,6.56
2017-05-17T11:15:21.476Z,6.68
2017-05-17T11:17:49.708Z,5.56
2017-05-17T11:20:17.939Z,5.68
2017-05-17T11:22:46.180Z,5.70
2017-05-17T11:25:14.559Z,6.54
2017-05-17T11:27:42.893Z,5.78
2017-05-17T11:30:11.864Z,6.30
2017-05-17T11:32:40.156Z,6.10
2017-05-17T11:35:09.815Z,5.40
2017-05-17T11:37:38.854Z,6.10
2017-05-17T11:40:07.823Z,6.46
2017-05-17T11:42:36.101Z,6.34
2017-05-17T11:45:04.325Z,5.84
2017-05-17T11:47:32.557Z,5.82
2017-05-17T11:50:00.859Z,6.48
2017-05-17T11:52:29.865Z,5.72
2017-05-17T11:54:58.100Z,6.04
2017-05-17T11:57:26.368Z,6.04
2017-05-17T11:59:54.689Z,5.84
2017-05-17T12:02:22.944Z,6.08
2017-05-17T12:04:51.929Z,5.98
2017-05-17T12:07:20.236Z,6.26
2017-05-17T12:09:48.481Z,5.64
2017-05-17T12:12:16.783Z,6.20
2017-05-17T12:14:45.773Z,6.28
2017-05-17T12:17:14.773Z,5.86
2017-05-17T12:19:43.778Z,6.04
2017-05-17T12:22:12.020Z,5.80
2017-05-17T12:24:40.256Z,6.28
2017-05-17T12:27:08.584Z,5.80
2017-05-17T12:29:37.566Z,6.08
2017-05-17T12:32:05.798Z,6.12
2017-05-17T12:34:34.068Z,5.92
2017-05-17T12:37:02.313Z,6.54
2017-05-17T12:39:31.308Z,6.10
2017-05-17T12:41:59.555Z,6.24
2017-05-17T12:44:27.869Z,6.40
2017-05-17T12:46:56.099Z,6.12
2017-05-17T12:49:24.329Z,6.48
2017-05-17T12:51:52.694Z,5.84
2017-05-17T12:54:20.941Z,6.30
2017-05-17T12:56:49.236Z,6.30
2017-05-17T12:59:18.217Z,6.42
2017-05-17T13:01:47.220Z,6.38
2017-05-17T13:04:16.223Z,5.66
2017-05-17T13:06:45.192Z,5.62
2017-05-17T13:09:13.590Z,6.06
2017-05-17T13:11:42.567Z,5.70
2017-05-17T13:14:10.820Z,6.10
2017-05-17T13:16:39.132Z,6.28
2017-05-17T13:19:08.107Z,6.20
2017-05-17T13:21:36.448Z,6.06
2017-05-17T13:24:04.789Z,6.46
2017-05-17T13:26:33.029Z,6.30
2017-05-17T13:29:01.344Z,5.88
2017-05-17T13:31:29.623Z,6.12
2017-05-17T13:33:57.854Z,5.98
2017-05-17T13:36:26.092Z,5.78
2017-05-17T13:38:54.440Z,6.40
2017-05-17T13:41:23.538Z,5.98
2017-05-17T13:43:52.512Z,6.12
2017-05-17T13:46:20.804Z,5.76
2017-05-17T13:48:49.806Z,6.12
2017-05-17T13:51:18.796Z,6.16
2017-05-17T13:53:47.781Z,6.16
2017-05-17T13:56:16.778Z,5.18
2017-05-17T13:58:45.755Z,5.78
2017-05-17T14:01:14.007Z,6.06
2017-05-17T14:03:42.243Z,5.82
2017-05-17T14:06:10.495Z,5.66
2017-05-17T14:08:43.637Z,6.18
2017-05-17T14:11:11.872Z,6.42
2017-05-17T14:13:40.136Z,6.06
2017-05-17T14:16:09.112Z,4.82
2017-05-17T14:18:37.411Z,5.76
2017-05-17T14:21:06.372Z,6.40
2017-05-17T14:23:34.625Z,5.98
2017-05-17T14:26:02.952Z,6.20
2017-05-17T14:28:31.939Z,6.12
2017-05-17T14:31:00.914Z,5.40
2017-05-17T14:33:29.149Z,6.68
2017-05-17T14:35:57.399Z,6.42
2017-05-17T14:38:25.643Z,6.24
2017-05-17T14:40:53.872Z,6.10
2017-05-17T14:43:22.120Z,6.38
2017-05-17T14:45:51.107Z,6.44
2017-05-17T14:48:20.087Z,6.18
2017-05-17T14:50:48.424Z,6.02
2017-05-17T14:53:16.755Z,6.20
2017-05-17T14:55:45.747Z,5.54
2017-05-17T14:58:14.732Z,5.04
2017-05-17T15:00:43.025Z,5.26
2017-05-17T15:03:11.292Z,5.90
2017-05-17T15:05:40.303Z,6.10
2017-05-17T15:08:08.564Z,6.26
2017-05-17T15:10:37.559Z,6.62
2017-05-17T15:13:06.529Z,6.60
2017-05-17T15:15:34.831Z,6.60
2017-05-17T15:18:03.822Z,7.18
2017-05-17T15:20:32.817Z,7.10
2017-05-17T15:23:01.795Z,6.38
2017-05-17T15:25:30.089Z,7.22
2017-05-17T15:27:59.057Z,7.96
2017-05-17T15:30:27.298Z,7.84
2017-05-17T15:32:55.627Z,8.12
2017-05-17T15:35:24.596Z,7.30
2017-05-17T15:37:52.829Z,7.02
2017-05-17T15:40:21.048Z,7.24
2017-05-17T15:42:49.285Z,7.60
2017-05-17T15:45:17.536Z,8.10
2017-05-17T15:47:45.791Z,7.56
2017-05-17T15:50:14.775Z,7.60
2017-05-17T15:52:43.779Z,7.82
2017-05-17T15:55:12.761Z,8.08
2017-05-17T15:57:41.049Z,7.50
2017-05-17T16:00:10.077Z,8.26
2017-05-17T16:02:38.320Z,7.78
2017-05-17T16:05:07.876Z,8.50
2017-05-17T16:07:36.229Z,7.40
2017-05-17T16:10:04.519Z,8.32
2017-05-17T16:12:32.751Z,7.76
2017-05-17T16:15:01.764Z,7.88
2017-05-17T16:17:29.984Z,7.90
2017-05-17T16:19:58.221Z,7.32
2017-05-17T16:22:26.449Z,7.98
2017-05-17T16:24:54.714Z,7.12
2017-05-17T16:27:23.029Z,7.66
2017-05-17T16:29:52.026Z,8.10
2017-05-17T16:32:21.014Z,8.32
2017-05-17T16:34:50.027Z,7.52
2017-05-17T16:37:18.290Z,7.60
2017-05-17T16:39:47.269Z,7.96
2017-05-17T16:42:16.263Z,7.50
2017-05-17T16:44:44.545Z,7.98
2017-05-17T16:47:13.525Z,8.24
2017-05-17T16:49:41.760Z,8.10
2017-05-17T16:52:10.003Z,7.20
2017-05-17T16:54:38.282Z,7.92
2017-05-17T16:57:06.546Z,7.98
2017-05-17T16:59:34.781Z,7.38
2017-05-17T17:02:03.023Z,7.80
2017-05-17T17:04:31.251Z,7.22
2017-05-17T17:06:59.565Z,7.40
2017-05-17T17:09:27.804Z,6.82
2017-05-17T17:11:56.045Z,6.80
2017-05-17T17:14:24.277Z,7.80
2017-05-17T17:16:53.284Z,7.96
2017-05-17T17:19:21.661Z,7.44
2017-05-17T17:21:49.970Z,7.18
2017-05-17T17:24:18.206Z,7.38
2017-05-17T17:26:45.814Z,7.56
2017-05-17T17:29:14.042Z,7.58
2017-05-17T17:31:43.031Z,7.02
2017-05-17T17:34:12.032Z,6.94
2017-05-17T17:36:40.270Z,7.68
2017-05-17T17:39:08.575Z,7.62
2017-05-17T17:41:37.574Z,8.08
2017-05-17T17:44:06.572Z,7.60
2017-05-17T17:46:34.846Z,8.10
2017-05-17T17:49:03.092Z,7.80
2017-05-17T17:51:31.399Z,7.86
2017-05-17T17:53:59.663Z,7.32
2017-05-17T18:02:16.152Z,7.46
2017-05-17T18:04:44.488Z,7.30
2017-05-17T18:07:13.583Z,6.60
2017-05-17T18:09:42.548Z,7.62
2017-05-17T18:12:10.866Z,7.56
2017-05-17T18:14:39.131Z,7.68
2017-05-17T18:17:08.119Z,7.28
2017-05-17T18:19:37.112Z,8.16
2017-05-17T18:22:06.211Z,7.30
2017-05-17T18:24:35.029Z,7.48
2017-05-17T18:27:03.377Z,7.26
2017-05-17T18:29:32.418Z,6.98
2017-05-17T18:32:00.653Z,6.60
2017-05-17T18:34:28.927Z,7.10
2017-05-17T18:36:57.165Z,7.02
2017-05-17T18:39:25.399Z,6.92
2017-05-17T18:41:53.639Z,7.02
2017-05-17T18:44:22.623Z,7.34
2017-05-17T18:46:50.849Z,6.92
2017-05-17T18:49:19.210Z,6.92
2017-05-17T18:51:47.480Z,7.20
2017-05-17T18:54:15.716Z,6.76
2017-05-17T18:56:43.961Z,7.72
2017-05-17T18:59:12.200Z,6.82
2017-05-17T19:01:40.479Z,6.92
2017-05-17T19:04:08.726Z,6.80
2017-05-17T19:06:36.962Z,7.78
2017-05-17T19:09:05.295Z,6.90
2017-05-17T19:11:34.279Z,6.96
2017-05-17T19:14:02.584Z,6.78
2017-05-17T19:16:30.833Z,7.00
2017-05-17T19:18:59.073Z,7.50
2017-05-17T19:21:27.357Z,7.00
2017-05-17T19:23:55.590Z,7.08
2017-05-17T19:26:23.856Z,7.34
2017-05-17T19:28:52.957Z,7.52
2017-05-17T19:31:21.221Z,7.52
2017-05-17T19:33:50.198Z,7.08
2017-05-17T19:36:18.538Z,7.32
2017-05-17T19:38:46.785Z,7.70
2017-05-17T19:41:15.024Z,6.48
2017-05-17T19:43:43.340Z,7.30
2017-05-17T19:46:11.596Z,6.18
2017-05-17T19:48:40.583Z,7.36
2017-05-17T19:51:09.589Z,6.62
2017-05-17T19:53:38.682Z,7.58
2017-05-17T19:56:07.717Z,7.10
2017-05-17T19:58:35.997Z,7.44
2017-05-17T20:01:04.260Z,6.42
2017-05-17T20:03:32.487Z,6.04
2017-05-17T20:06:00.743Z,6.62
2017-05-17T20:08:29.001Z,7.06
2017-05-17T20:10:57.264Z,6.50
2017-05-17T20:13:25.521Z,7.36
2017-05-17T20:16:13.580Z,7.28
2017-05-17T20:18:41.827Z,7.84
2017-05-17T20:21:10.099Z,6.66
2017-05-17T20:23:39.091Z,7.00
2017-05-17T20:29:01.631Z,6.32
2017-05-17T20:31:29.940Z,6.32
2017-05-17T20:33:58.229Z,7.06
2017-05-17T20:36:26.465Z,6.70
2017-05-17T20:38:54.751Z,7.68
2017-05-17T20:41:23.727Z,7.00
2017-05-17T20:43:52.024Z,7.00
2017-05-17T20:46:21.017Z,6.70
2017-05-17T20:48:49.984Z,6.82
2017-05-17T20:51:18.221Z,7.36
2017-05-17T20:53:46.473Z,7.44
2017-05-17T20:56:14.700Z,7.10
2017-05-17T20:58:43.028Z,7.18
2017-05-17T21:01:11.261Z,7.32
2017-05-17T21:03:39.506Z,6.04
2017-05-17T21:06:07.750Z,7.48
2017-05-17T21:08:36.035Z,7.28
2017-05-17T21:11:04.279Z,7.12
2017-05-17T21:13:32.511Z,7.82
2017-05-17T21:16:00.859Z,7.08
2017-05-17T21:18:29.106Z,7.16
2017-05-17T21:20:58.101Z,6.84
2017-05-17T21:23:26.402Z,6.86
2017-05-17T21:25:54.660Z,7.18
2017-05-17T21:28:23.644Z,7.92
2017-05-17T21:30:52.655Z,7.34
2017-05-17T21:33:21.649Z,7.00
2017-05-17T21:35:50.637Z,6.86
2017-05-17T21:38:19.603Z,7.14
2017-05-17T21:40:47.872Z,7.48
2017-05-17T21:43:16.131Z,6.72
2017-05-17T21:45:44.486Z,6.30
2017-05-17T21:48:12.728Z,7.40
2017-05-17T21:50:41.713Z,7.44
2017-05-17T21:53:10.014Z,7.04
2017-05-17T21:55:39.018Z,7.78
2017-05-17T21:58:07.252Z,6.90
2017-05-17T22:00:39.150Z,6.60
2017-05-17T22:03:07.388Z,6.90
2017-05-17T22:05:35.628Z,6.52
2017-05-17T22:08:03.885Z,7.22
2017-05-17T22:10:32.148Z,7.14
2017-05-17T22:13:00.388Z,6.58
2017-05-17T22:15:28.634Z,6.60
2017-05-17T22:17:56.863Z,7.46
2017-05-17T22:20:25.857Z,7.14
2017-05-17T22:22:54.850Z,6.94
2017-05-17T22:25:23.869Z,6.80
2017-05-17T22:27:52.233Z,7.98
2017-05-17T22:30:20.459Z,6.80
2017-05-17T22:32:48.692Z,6.40
2017-05-17T22:35:17.004Z,6.94
2017-05-17T22:37:45.256Z,7.52
2017-05-17T22:40:13.510Z,7.42
2017-05-17T22:42:42.539Z,7.28
2017-05-17T22:45:10.878Z,7.10
2017-05-17T22:47:39.867Z,7.98
2017-05-17T22:50:08.856Z,7.28
2017-05-17T22:52:37.840Z,7.08
2017-05-17T22:55:06.858Z,6.42
2017-05-17T22:57:35.080Z,7.50
2017-05-17T23:00:03.335Z,7.16
2017-05-17T23:02:31.569Z,6.46
2017-05-17T23:05:00.547Z,7.18
2017-05-17T23:07:28.789Z,7.36
2017-05-17T23:09:57.032Z,6.56
2017-05-17T23:12:25.280Z,6.46
2017-05-17T23:14:53.518Z,7.74
2017-05-17T23:17:21.772Z,6.40
2017-05-17T23:19:50.011Z,6.88
2017-05-17T23:22:18.983Z,5.90
2017-05-17T23:24:47.338Z,6.80
2017-05-17T23:27:15.571Z,7.34
2017-05-17T23:29:44.572Z,6.88
2017-05-17T23:32:12.858Z,7.12
2017-05-17T23:34:41.091Z,7.08
2017-05-17T23:37:09.391Z,6.58
2017-05-17T23:39:38.504Z,7.26
2017-05-17T23:42:06.787Z,6.28
2017-05-17T23:44:35.042Z,6.72
2017-05-17T23:47:04.041Z,6.36
2017-05-17T23:49:32.276Z,7.22
2017-05-17T23:52:00.526Z,6.62
2017-05-17T23:54:28.863Z,7.02
2017-05-17T23:56:57.849Z,6.24
2017-05-17T23:59:26.947Z,6.78
